createdAt,value
2018-09-25T00:01:22.813Z,8.80
2018-09-25T00:06:32.323Z,9.30
2018-09-25T00:11:41.879Z,9.40
2018-09-25T00:16:51.360Z,9.10
2018-09-25T00:22:00.993Z,8.60
2018-09-25T00:27:10.439Z,8.50
2018-09-25T00:32:19.856Z,9.30
2018-09-25T00:37:29.313Z,10.00
2018-09-25T00:42:38.694Z,9.70
2018-09-25T00:47:48.189Z,9.50
2018-09-25T00:52:57.535Z,9.10
2018-09-25T00:58:07.017Z,9.00
2018-09-25T01:03:16.456Z,8.40
2018-09-25T01:08:26.007Z,8.70
2018-09-25T01:13:35.719Z,9.30
2018-09-25T01:18:45.184Z,9.00
2018-09-25T01:23:54.560Z,9.20
2018-09-25T01:29:03.976Z,9.70
2018-09-25T01:34:13.584Z,8.80
2018-09-25T01:39:22.944Z,8.40
2018-09-25T01:44:32.579Z,7.50
2018-09-25T01:49:42.035Z,7.40
2018-09-25T01:54:51.475Z,7.90
2018-09-25T02:00:01.033Z,8.50
2018-09-25T02:05:10.514Z,8.70
2018-09-25T02:10:20.032Z,8.90
2018-09-25T02:15:29.613Z,8.70
2018-09-25T02:20:39.239Z,8.30
2018-09-25T02:25:48.788Z,8.10
2018-09-25T02:30:58.240Z,8.10
2018-09-25T02:36:07.622Z,7.80
2018-09-25T02:41:17.046Z,7.40
2018-09-25T02:46:26.462Z,7.50
2018-09-25T02:51:35.877Z,7.70
2018-09-25T02:56:45.404Z,7.90
2018-09-25T03:01:54.958Z,8.20
2018-09-25T03:07:04.450Z,7.40
2018-09-25T03:12:14.116Z,8.10
2018-09-25T03:17:23.742Z,9.00
2018-09-25T03:22:33.291Z,8.40
2018-09-25T03:27:42.703Z,7.70
2018-09-25T03:32:52.237Z,7.10
2018-09-25T03:38:01.675Z,6.90
2018-09-25T03:43:11.140Z,6.80
2018-09-25T03:48:21.128Z,7.20
2018-09-25T03:53:30.526Z,8.40
2018-09-25T03:58:40.139Z,7.50
2018-09-25T04:03:49.631Z,6.80
2018-09-25T04:08:59.249Z,6.80
2018-09-25T04:14:08.668Z,7.60
2018-09-25T04:19:17.983Z,7.80
2018-09-25T04:24:27.632Z,7.30
2018-09-25T04:29:37.124Z,8.40
2018-09-25T04:34:46.611Z,8.90
2018-09-25T04:39:56.171Z,8.60
2018-09-25T04:45:05.769Z,8.00
2018-09-25T04:50:15.321Z,8.70
2018-09-25T04:55:24.891Z,7.30
2018-09-25T05:00:34.395Z,7.20
2018-09-25T05:05:43.872Z,7.30
2018-09-25T05:10:53.165Z,7.20
2018-09-25T05:16:02.591Z,7.40
2018-09-25T05:21:12.156Z,7.10
2018-09-25T05:26:21.488Z,6.80
2018-09-25T05:31:30.880Z,7.00
2018-09-25T05:36:40.465Z,6.90
2018-09-25T05:41:49.804Z,7.20
2018-09-25T05:46:59.234Z,7.20
2018-09-25T05:52:08.550Z,5.70
2018-09-25T05:57:17.969Z,7.00
2018-09-25T06:02:27.277Z,7.30
2018-09-25T06:07:36.572Z,7.10
2018-09-25T06:12:45.914Z,7.60
2018-09-25T06:17:55.332Z,8.00
2018-09-25T06:23:04.651Z,8.50
2018-09-25T06:28:14.017Z,8.80
2018-09-25T06:33:23.603Z,8.80
2018-09-25T06:38:33.052Z,8.80
2018-09-25T06:43:42.483Z,8.90
2018-09-25T06:48:51.789Z,9.20
2018-09-25T06:54:01.241Z,10.30
2018-09-25T06:59:10.617Z,10.60
2018-09-25T07:04:20.172Z,10.70
2018-09-25T07:09:29.444Z,11.30
2018-09-25T07:14:38.984Z,11.50
2018-09-25T07:19:48.416Z,12.50
2018-09-25T07:24:57.717Z,12.20
2018-09-25T07:30:07.296Z,12.30
2018-09-25T07:35:16.491Z,13.30
2018-09-25T07:40:26.226Z,13.00
2018-09-25T07:45:35.462Z,13.80
2018-09-25T07:50:45.129Z,14.30
2018-09-25T07:55:54.383Z,14.30
2018-09-25T08:01:03.923Z,15.40
2018-09-25T08:06:13.744Z,16.30
2018-09-25T08:11:23.411Z,18.00
2018-09-25T08:16:32.728Z,17.90
2018-09-25T08:21:42.146Z,18.20
2018-09-25T08:26:51.505Z,19.10
2018-09-25T08:32:01.266Z,20.50
2018-09-25T08:37:10.784Z,19.10
2018-09-25T08:42:21.132Z,19.20
2018-09-25T08:47:30.511Z,20.20
2018-09-25T08:52:39.917Z,18.90
2018-09-25T08:57:49.274Z,20.10
2018-09-25T09:02:58.643Z,19.30
2018-09-25T09:08:07.922Z,19.80
2018-09-25T09:13:17.240Z,20.30
2018-09-25T09:18:26.605Z,21.70
2018-09-25T09:23:36.052Z,22.60
2018-09-25T09:28:45.581Z,23.50
2018-09-25T09:33:54.974Z,22.90
2018-09-25T09:39:04.319Z,23.90
2018-09-25T09:44:13.703Z,21.50
2018-09-25T09:49:23.036Z,23.90
2018-09-25T09:54:32.368Z,22.40
2018-09-25T09:59:41.692Z,22.10
2018-09-25T10:04:50.927Z,25.90
2018-09-25T10:10:00.327Z,25.70
2018-09-25T10:15:09.839Z,26.80
2018-09-25T10:20:19.179Z,26.80
2018-09-25T10:25:28.620Z,24.20
2018-09-25T10:30:37.965Z,20.60
2018-09-25T10:35:47.320Z,22.00
2018-09-25T10:40:56.839Z,22.60
2018-09-25T10:46:06.160Z,25.70
2018-09-25T10:51:15.626Z,25.90
2018-09-25T10:56:24.884Z,23.20
2018-09-25T11:01:34.330Z,26.10
2018-09-25T11:06:43.644Z,24.40
2018-09-25T11:11:53.115Z,26.70
2018-09-25T11:17:02.384Z,23.80
2018-09-25T11:22:11.685Z,25.50
2018-09-25T11:27:21.128Z,25.00
2018-09-25T11:32:30.344Z,27.50
2018-09-25T11:37:39.779Z,29.80
2018-09-25T11:42:49.063Z,28.70
2018-09-25T11:47:58.464Z,28.10
2018-09-25T11:53:07.744Z,27.10
2018-09-25T11:58:17.139Z,30.30
2018-09-25T12:03:26.488Z,30.80
2018-09-25T12:08:35.976Z,30.00
2018-09-25T12:13:45.276Z,30.20
2018-09-25T12:18:54.433Z,31.60
2018-09-25T12:24:03.854Z,30.20
2018-09-25T12:29:13.172Z,30.60
2018-09-25T12:34:22.629Z,28.70
2018-09-25T12:39:31.991Z,26.50
2018-09-25T12:44:41.360Z,25.20
2018-09-25T12:49:50.685Z,24.60
2018-09-25T12:55:00.172Z,25.80
2018-09-25T13:00:09.792Z,28.90
2018-09-25T13:05:19.304Z,28.10
2018-09-25T13:10:28.635Z,29.50
2018-09-25T13:15:37.976Z,28.90
2018-09-25T13:20:47.396Z,29.70
2018-09-25T13:25:56.783Z,26.40
2018-09-25T13:31:06.229Z,24.50
2018-09-25T13:36:15.540Z,26.80
2018-09-25T13:41:25.112Z,28.30
2018-09-25T13:46:34.460Z,27.70
2018-09-25T13:51:43.735Z,26.80
2018-09-25T13:56:53.195Z,25.70
2018-09-25T14:02:02.658Z,27.70
2018-09-25T14:07:12.129Z,28.50
2018-09-25T14:12:21.513Z,29.70
2018-09-25T14:17:30.961Z,29.20
2018-09-25T14:22:40.415Z,29.50
2018-09-25T14:27:49.875Z,28.40
2018-09-25T14:32:59.216Z,26.50
2018-09-25T14:38:08.704Z,24.10
2018-09-25T14:43:17.956Z,21.20
2018-09-25T14:48:27.434Z,21.00
2018-09-25T14:53:36.717Z,19.40
2018-09-25T14:58:46.251Z,20.00
2018-09-25T15:03:55.689Z,19.60
2018-09-25T15:09:05.033Z,20.00
2018-09-25T15:14:14.211Z,22.30
2018-09-25T15:19:24.028Z,20.10
2018-09-25T15:24:33.453Z,20.90
2018-09-25T15:29:42.930Z,20.50
2018-09-25T15:34:52.384Z,21.60
2018-09-25T15:40:01.723Z,21.00
2018-09-25T15:45:11.156Z,22.10
2018-09-25T15:50:20.593Z,21.60
2018-09-25T15:55:30.102Z,20.20
2018-09-25T16:00:39.765Z,18.70
2018-09-25T16:05:49.247Z,17.20
2018-09-25T16:10:58.744Z,17.40
2018-09-25T16:16:08.317Z,17.60
2018-09-25T16:21:17.792Z,17.20
2018-09-25T16:26:27.207Z,17.30
2018-09-25T16:31:36.660Z,16.50
2018-09-25T16:36:46.231Z,16.50
2018-09-25T16:41:55.772Z,17.00
2018-09-25T16:47:05.278Z,17.20
2018-09-25T16:52:14.665Z,16.80
2018-09-25T16:57:23.922Z,16.40
2018-09-25T17:02:33.377Z,16.10
2018-09-25T17:07:42.779Z,15.70
2018-09-25T17:12:52.491Z,15.60
2018-09-25T17:18:01.920Z,16.30
2018-09-25T17:23:11.402Z,16.70
2018-09-25T17:28:20.760Z,16.80
2018-09-25T17:33:30.323Z,16.80
2018-09-25T17:38:39.900Z,16.70
2018-09-25T17:43:49.513Z,16.60
2018-09-25T17:48:58.926Z,16.40
2018-09-25T17:54:08.401Z,16.30
2018-09-25T17:59:18.135Z,15.90
2018-09-25T18:04:27.643Z,15.40
2018-09-25T18:09:37.406Z,15.60
2018-09-25T18:14:47.005Z,15.40
2018-09-25T18:19:56.458Z,15.50
2018-09-25T18:25:05.889Z,15.20
2018-09-25T18:30:15.468Z,15.50
2018-09-25T18:35:25.028Z,15.40
2018-09-25T18:40:34.553Z,15.20
2018-09-25T18:45:44.189Z,15.10
2018-09-25T18:50:53.827Z,15.10
2018-09-25T18:56:03.497Z,15.00
2018-09-25T19:01:13.151Z,15.00
2018-09-25T19:06:22.811Z,14.90
2018-09-25T19:11:32.441Z,14.80
2018-09-25T19:16:41.980Z,14.70
2018-09-25T19:21:51.643Z,14.60
2018-09-25T19:27:01.168Z,14.60
2018-09-25T19:32:10.456Z,14.50
2018-09-25T19:37:20.465Z,14.50
2018-09-25T19:42:41.227Z,14.40
2018-09-25T19:47:50.898Z,14.40
2018-09-25T19:53:00.340Z,14.30
2018-09-25T19:58:09.835Z,14.20
2018-09-25T20:03:19.332Z,14.20
2018-09-25T20:08:28.783Z,14.00
2018-09-25T20:13:38.314Z,13.80
2018-09-25T20:18:47.990Z,13.90
2018-09-25T20:23:57.563Z,13.90
2018-09-25T20:29:06.923Z,13.90
2018-09-25T20:34:16.514Z,13.80
2018-09-25T20:39:25.873Z,13.60
2018-09-25T20:44:35.250Z,12.90
2018-09-25T20:49:44.595Z,12.40
2018-09-25T20:54:54.179Z,12.70
2018-09-25T21:00:03.529Z,12.90
2018-09-25T21:05:13.023Z,12.00
2018-09-25T21:10:22.328Z,11.80
2018-09-25T21:15:31.763Z,12.00
2018-09-25T21:20:41.064Z,12.50
2018-09-25T21:25:50.464Z,12.80
2018-09-25T21:30:59.916Z,12.80
2018-09-25T21:36:09.376Z,12.70
2018-09-25T21:41:18.619Z,12.70
2018-09-25T21:46:28.051Z,12.50
2018-09-25T21:51:37.775Z,11.80
2018-09-25T21:56:46.947Z,11.50
2018-09-25T22:01:56.262Z,11.30
2018-09-25T22:07:05.597Z,11.10
2018-09-25T22:12:15.031Z,11.10
2018-09-25T22:17:24.203Z,11.00
2018-09-25T22:22:33.518Z,10.90
2018-09-25T22:27:42.961Z,10.70
2018-09-25T22:32:52.401Z,10.50
2018-09-25T22:38:01.747Z,10.40
2018-09-25T22:43:11.272Z,10.50
2018-09-25T22:48:27.552Z,10.20
2018-09-25T22:58:46.278Z,10.00
2018-09-25T23:03:55.633Z,10.00
2018-09-25T23:09:05.072Z,10.00
2018-09-25T23:14:14.309Z,10.00
2018-09-25T23:19:23.748Z,10.10
2018-09-25T23:24:33.124Z,10.00
2018-09-25T23:29:42.579Z,10.00
2018-09-25T23:34:52.133Z,10.00
2018-09-25T23:40:00.558Z,9.90
2018-09-25T23:45:21.895Z,9.90
2018-09-25T23:50:33.732Z,9.90
2018-09-25T23:55:48.818Z,9.90
